sensor_id;sensor_type;location;lat;lon;timestamp;P1;durP1;ratioP1;P2;durP2;ratioP2
7160;SDS011;3622;53.576;9.978;2023-08-01T00:00:26;4.20;;;3.90;;
7160;SDS011;3622;53.576;9.978;2023-08-01T00:02:52;3.37;;;3.20;;
7160;SDS011;3622;53.576;9.978;2023-08-01T00:05:18;4.73;;;4.33;;
7160;SDS011;3622;53.576;9.978;2023-08-01T00:07:44;4.80;;;4.40;;
7160;SDS011;3622;53.576;9.978;2023-08-01T00:10:10;4.57;;;4.20;;
7160;SDS011;3622;53.576;9.978;2023-08-01T00:12:36;3.20;;;3.00;;
7160;SDS011;3622;53.576;9.978;2023-08-01T00:15:03;2.40;;;2.30;;
7160;SDS011;3622;53.576;9.978;2023-08-01T00:17:29;4.30;;;3.90;;
7160;SDS011;3622;53.576;9.978;2023-08-01T00:19:55;2.50;;;2.40;;
7160;SDS011;3622;53.576;9.978;2023-08-01T00:22:21;2.87;;;2.20;;
7160;SDS011;3622;53.576;9.978;2023-08-01T00:24:47;2.67;;;2.50;;
7160;SDS011;3622;53.576;9.978;2023-08-01T00:27:14;3.53;;;3.23;;
7160;SDS011;3622;53.576;9.978;2023-08-01T00:29:39;3.23;;;3.03;;
7160;SDS011;3622;53.576;9.978;2023-08-01T00:32:06;4.80;;;4.30;;
7160;SDS011;3622;53.576;9.978;2023-08-01T00:34:32;3.10;;;2.90;;
7160;SDS011;3622;53.576;9.978;2023-08-01T00:36:58;3.30;;;3.10;;
7160;SDS011;3622;53.576;9.978;2023-08-01T00:39:24;3.30;;;3.10;;
7160;SDS011;3622;53.576;9.978;2023-08-01T00:41:50;2.53;;;2.43;;
7160;SDS011;3622;53.576;9.978;2023-08-01T00:44:16;3.10;;;2.40;;
7160;SDS011;3622;53.576;9.978;2023-08-01T00:46:42;3.17;;;3.00;;
7160;SDS011;3622;53.576;9.978;2023-08-01T00:49:08;3.47;;;3.27;;
7160;SDS011;3622;53.576;9.978;2023-08-01T00:51:34;2.80;;;2.30;;
7160;SDS011;3622;53.576;9.978;2023-08-01T00:54:00;3.00;;;2.80;;
7160;SDS011;3622;53.576;9.978;2023-08-01T00:56:26;3.87;;;2.70;;
7160;SDS011;3622;53.576;9.978;2023-08-01T00:58:52;3.67;;;3.03;;
7160;SDS011;3622;53.576;9.978;2023-08-01T01:01:18;2.87;;;2.70;;
7160;SDS011;3622;53.576;9.978;2023-08-01T01:03:44;2.80;;;2.57;;
7160;SDS011;3622;53.576;9.978;2023-08-01T01:08:36;3.03;;;2.87;;
7160;SDS011;3622;53.576;9.978;2023-08-01T01:11:02;3.53;;;3.23;;
7160;SDS011;3622;53.576;9.978;2023-08-01T01:13:29;3.53;;;3.33;;
7160;SDS011;3622;53.576;9.978;2023-08-01T01:15:58;3.57;;;3.30;;
7160;SDS011;3622;53.576;9.978;2023-08-01T01:18:24;4.30;;;3.90;;
7160;SDS011;3622;53.576;9.978;2023-08-01T01:20:50;3.73;;;3.43;;
7160;SDS011;3622;53.576;9.978;2023-08-01T01:23:16;4.83;;;4.30;;
7160;SDS011;3622;53.576;9.978;2023-08-01T01:25:43;3.77;;;3.53;;
7160;SDS011;3622;53.576;9.978;2023-08-01T01:28:11;4.57;;;4.13;;
7160;SDS011;3622;53.576;9.978;2023-08-01T01:30:38;4.30;;;3.90;;
7160;SDS011;3622;53.576;9.978;2023-08-01T01:33:04;5.00;;;4.60;;
7160;SDS011;3622;53.576;9.978;2023-08-01T01:35:32;4.40;;;4.00;;
7160;SDS011;3622;53.576;9.978;2023-08-01T01:37:59;4.97;;;4.57;;
7160;SDS011;3622;53.576;9.978;2023-08-01T01:40:28;4.87;;;4.43;;
7160;SDS011;3622;53.576;9.978;2023-08-01T01:42:54;8.90;;;3.93;;
7160;SDS011;3622;53.576;9.978;2023-08-01T01:45:20;6.60;;;5.13;;
7160;SDS011;3622;53.576;9.978;2023-08-01T01:47:46;4.47;;;4.13;;
7160;SDS011;3622;53.576;9.978;2023-08-01T01:50:12;6.03;;;4.43;;
7160;SDS011;3622;53.576;9.978;2023-08-01T01:52:38;5.10;;;4.70;;
7160;SDS011;3622;53.576;9.978;2023-08-01T01:55:04;4.80;;;4.40;;
7160;SDS011;3622;53.576;9.978;2023-08-01T01:57:30;5.10;;;4.60;;
7160;SDS011;3622;53.576;9.978;2023-08-01T01:59:56;4.03;;;3.70;;
7160;SDS011;3622;53.576;9.978;2023-08-01T02:02:22;6.00;;;5.13;;
7160;SDS011;3622;53.576;9.978;2023-08-01T02:04:49;4.50;;;4.20;;
7160;SDS011;3622;53.576;9.978;2023-08-01T02:07:15;5.70;;;5.17;;
7160;SDS011;3622;53.576;9.978;2023-08-01T02:09:41;5.40;;;4.90;;
7160;SDS011;3622;53.576;9.978;2023-08-01T02:12:07;6.17;;;5.63;;
7160;SDS011;3622;53.576;9.978;2023-08-01T02:14:35;8.10;;;6.50;;
7160;SDS011;3622;53.576;9.978;2023-08-01T02:17:01;6.17;;;5.57;;
7160;SDS011;3622;53.576;9.978;2023-08-01T02:19:27;7.80;;;6.00;;
7160;SDS011;3622;53.576;9.978;2023-08-01T02:21:53;7.27;;;6.07;;
7160;SDS011;3622;53.576;9.978;2023-08-01T02:24:19;7.90;;;5.83;;
7160;SDS011;3622;53.576;9.978;2023-08-01T02:26:45;6.60;;;6.00;;
7160;SDS011;3622;53.576;9.978;2023-08-01T02:29:11;7.03;;;6.30;;
7160;SDS011;3622;53.576;9.978;2023-08-01T02:31:37;7.93;;;7.23;;
7160;SDS011;3622;53.576;9.978;2023-08-01T02:34:03;8.17;;;6.20;;
7160;SDS011;3622;53.576;9.978;2023-08-01T02:36:29;10.83;;;6.93;;
7160;SDS011;3622;53.576;9.978;2023-08-01T02:38:55;9.80;;;7.00;;
7160;SDS011;3622;53.576;9.978;2023-08-01T02:41:21;8.53;;;6.73;;
7160;SDS011;3622;53.576;9.978;2023-08-01T02:43:46;9.30;;;7.37;;
7160;SDS011;3622;53.576;9.978;2023-08-01T02:46:12;12.07;;;7.80;;
7160;SDS011;3622;53.576;9.978;2023-08-01T02:48:38;10.63;;;7.97;;
7160;SDS011;3622;53.576;9.978;2023-08-01T02:51:04;7.83;;;7.07;;
7160;SDS011;3622;53.576;9.978;2023-08-01T02:53:34;7.70;;;6.77;;
7160;SDS011;3622;53.576;9.978;2023-08-01T02:55:59;9.90;;;7.03;;
7160;SDS011;3622;53.576;9.978;2023-08-01T02:58:25;7.90;;;7.10;;
7160;SDS011;3622;53.576;9.978;2023-08-01T03:00:51;9.43;;;7.60;;
7160;SDS011;3622;53.576;9.978;2023-08-01T03:03:17;8.80;;;7.70;;
7160;SDS011;3622;53.576;9.978;2023-08-01T03:05:43;7.53;;;6.73;;
7160;SDS011;3622;53.576;9.978;2023-08-01T03:08:09;8.80;;;7.33;;
7160;SDS011;3622;53.576;9.978;2023-08-01T03:10:35;9.00;;;7.20;;
7160;SDS011;3622;53.576;9.978;2023-08-01T03:13:01;8.60;;;7.70;;
7160;SDS011;3622;53.576;9.978;2023-08-01T03:15:27;9.63;;;7.67;;
7160;SDS011;3622;53.576;9.978;2023-08-01T03:17:53;11.97;;;8.27;;
7160;SDS011;3622;53.576;9.978;2023-08-01T03:20:19;10.13;;;8.20;;
7160;SDS011;3622;53.576;9.978;2023-08-01T03:22:45;12.40;;;8.70;;
7160;SDS011;3622;53.576;9.978;2023-08-01T03:25:11;11.30;;;8.37;;
7160;SDS011;3622;53.576;9.978;2023-08-01T03:27:37;11.10;;;7.77;;
7160;SDS011;3622;53.576;9.978;2023-08-01T03:30:03;9.80;;;8.70;;
7160;SDS011;3622;53.576;9.978;2023-08-01T03:32:29;9.90;;;8.20;;
7160;SDS011;3622;53.576;9.978;2023-08-01T03:34:55;13.30;;;8.57;;
7160;SDS011;3622;53.576;9.978;2023-08-01T03:37:21;10.27;;;8.20;;
7160;SDS011;3622;53.576;9.978;2023-08-01T03:39:47;10.33;;;8.53;;
7160;SDS011;3622;53.576;9.978;2023-08-01T03:42:13;13.40;;;10.00;;
7160;SDS011;3622;53.576;9.978;2023-08-01T03:44:40;26.50;;;17.33;;
7160;SDS011;3622;53.576;9.978;2023-08-01T03:47:06;18.57;;;12.67;;
7160;SDS011;3622;53.576;9.978;2023-08-01T03:49:32;13.33;;;9.60;;
7160;SDS011;3622;53.576;9.978;2023-08-01T03:51:58;10.97;;;9.50;;
7160;SDS011;3622;53.576;9.978;2023-08-01T03:54:24;11.53;;;9.33;;
7160;SDS011;3622;53.576;9.978;2023-08-01T03:56:50;15.43;;;9.33;;
7160;SDS011;3622;53.576;9.978;2023-08-01T03:59:16;13.93;;;9.83;;
7160;SDS011;3622;53.576;9.978;2023-08-01T04:01:42;9.03;;;8.10;;
7160;SDS011;3622;53.576;9.978;2023-08-01T04:04:08;9.30;;;8.40;;
7160;SDS011;3622;53.576;9.978;2023-08-01T04:06:34;13.00;;;8.50;;
7160;SDS011;3622;53.576;9.978;2023-08-01T04:09:00;9.97;;;8.13;;
7160;SDS011;3622;53.576;9.978;2023-08-01T04:11:26;23.93;;;17.83;;
7160;SDS011;3622;53.576;9.978;2023-08-01T04:13:54;9.10;;;7.47;;
7160;SDS011;3622;53.576;9.978;2023-08-01T04:16:21;8.00;;;7.00;;
7160;SDS011;3622;53.576;9.978;2023-08-01T04:18:47;10.73;;;7.60;;
7160;SDS011;3622;53.576;9.978;2023-08-01T04:21:13;8.90;;;8.00;;
7160;SDS011;3622;53.576;9.978;2023-08-01T04:23:40;9.77;;;7.97;;
7160;SDS011;3622;53.576;9.978;2023-08-01T04:26:06;9.70;;;7.50;;
7160;SDS011;3622;53.576;9.978;2023-08-01T04:28:32;11.33;;;7.93;;
7160;SDS011;3622;53.576;9.978;2023-08-01T04:30:58;13.00;;;8.53;;
7160;SDS011;3622;53.576;9.978;2023-08-01T04:33:24;12.97;;;7.93;;
7160;SDS011;3622;53.576;9.978;2023-08-01T04:35:50;14.93;;;7.67;;
7160;SDS011;3622;53.576;9.978;2023-08-01T04:38:16;12.27;;;7.97;;
7160;SDS011;3622;53.576;9.978;2023-08-01T04:40:42;11.90;;;8.03;;
7160;SDS011;3622;53.576;9.978;2023-08-01T04:43:09;12.90;;;7.50;;
7160;SDS011;3622;53.576;9.978;2023-08-01T04:45:35;12.07;;;8.13;;
7160;SDS011;3622;53.576;9.978;2023-08-01T04:48:01;13.47;;;8.20;;
7160;SDS011;3622;53.576;9.978;2023-08-01T04:50:27;14.00;;;7.90;;
7160;SDS011;3622;53.576;9.978;2023-08-01T04:52:53;9.63;;;7.87;;
7160;SDS011;3622;53.576;9.978;2023-08-01T04:55:19;11.60;;;8.37;;
7160;SDS011;3622;53.576;9.978;2023-08-01T04:57:45;10.90;;;8.50;;
7160;SDS011;3622;53.576;9.978;2023-08-01T05:00:11;10.60;;;7.77;;
7160;SDS011;3622;53.576;9.978;2023-08-01T05:02:37;13.00;;;8.37;;
7160;SDS011;3622;53.576;9.978;2023-08-01T05:05:03;11.53;;;8.90;;
7160;SDS011;3622;53.576;9.978;2023-08-01T05:07:30;8.57;;;7.67;;
7160;SDS011;3622;53.576;9.978;2023-08-01T05:09:56;9.90;;;7.60;;
7160;SDS011;3622;53.576;9.978;2023-08-01T05:12:22;11.07;;;7.60;;
7160;SDS011;3622;53.576;9.978;2023-08-01T05:14:47;10.70;;;7.37;;
7160;SDS011;3622;53.576;9.978;2023-08-01T05:17:13;9.60;;;7.27;;
7160;SDS011;3622;53.576;9.978;2023-08-01T05:19:39;10.47;;;7.43;;
7160;SDS011;3622;53.576;9.978;2023-08-01T05:22:05;16.40;;;7.77;;
7160;SDS011;3622;53.576;9.978;2023-08-01T05:24:31;21.20;;;7.30;;
7160;SDS011;3622;53.576;9.978;2023-08-01T05:26:57;11.50;;;7.43;;
7160;SDS011;3622;53.576;9.978;2023-08-01T05:29:24;10.73;;;6.80;;
7160;SDS011;3622;53.576;9.978;2023-08-01T05:31:50;8.37;;;7.60;;
7160;SDS011;3622;53.576;9.978;2023-08-01T05:34:16;9.30;;;6.97;;
7160;SDS011;3622;53.576;9.978;2023-08-01T05:36:42;8.27;;;6.83;;
7160;SDS011;3622;53.576;9.978;2023-08-01T05:39:08;8.67;;;6.57;;
7160;SDS011;3622;53.576;9.978;2023-08-01T05:41:34;7.93;;;7.10;;
7160;SDS011;3622;53.576;9.978;2023-08-01T05:44:01;7.90;;;7.13;;
7160;SDS011;3622;53.576;9.978;2023-08-01T05:46:27;6.47;;;5.90;;
7160;SDS011;3622;53.576;9.978;2023-08-01T05:48:53;9.63;;;6.93;;
7160;SDS011;3622;53.576;9.978;2023-08-01T05:51:19;8.17;;;6.60;;
7160;SDS011;3622;53.576;9.978;2023-08-01T05:53:45;11.50;;;6.73;;
7160;SDS011;3622;53.576;9.978;2023-08-01T05:56:11;7.40;;;6.67;;
7160;SDS011;3622;53.576;9.978;2023-08-01T05:58:37;6.20;;;5.70;;
7160;SDS011;3622;53.576;9.978;2023-08-01T06:01:03;8.43;;;6.50;;
7160;SDS011;3622;53.576;9.978;2023-08-01T06:03:29;9.33;;;6.20;;
7160;SDS011;3622;53.576;9.978;2023-08-01T06:05:55;17.13;;;6.20;;
7160;SDS011;3622;53.576;9.978;2023-08-01T06:08:21;7.20;;;5.87;;
7160;SDS011;3622;53.576;9.978;2023-08-01T06:10:47;6.47;;;5.77;;
7160;SDS011;3622;53.576;9.978;2023-08-01T06:13:13;10.20;;;6.17;;
7160;SDS011;3622;53.576;9.978;2023-08-01T06:15:39;12.70;;;6.33;;
7160;SDS011;3622;53.576;9.978;2023-08-01T06:18:05;8.70;;;5.77;;
7160;SDS011;3622;53.576;9.978;2023-08-01T06:20:31;6.83;;;5.57;;
7160;SDS011;3622;53.576;9.978;2023-08-01T06:22:57;15.00;;;7.17;;
7160;SDS011;3622;53.576;9.978;2023-08-01T06:25:23;12.00;;;6.37;;
7160;SDS011;3622;53.576;9.978;2023-08-01T06:27:49;7.30;;;5.60;;
7160;SDS011;3622;53.576;9.978;2023-08-01T06:30:15;7.83;;;5.70;;
7160;SDS011;3622;53.576;9.978;2023-08-01T06:32:41;6.63;;;5.70;;
7160;SDS011;3622;53.576;9.978;2023-08-01T06:35:07;9.90;;;5.43;;
7160;SDS011;3622;53.576;9.978;2023-08-01T06:37:33;7.20;;;5.87;;
7160;SDS011;3622;53.576;9.978;2023-08-01T06:39:59;7.40;;;4.30;;
7160;SDS011;3622;53.576;9.978;2023-08-01T06:42:25;7.90;;;5.30;;
7160;SDS011;3622;53.576;9.978;2023-08-01T06:44:51;11.50;;;4.30;;
7160;SDS011;3622;53.576;9.978;2023-08-01T06:47:17;8.40;;;4.40;;
7160;SDS011;3622;53.576;9.978;2023-08-01T06:49:43;7.90;;;4.23;;
7160;SDS011;3622;53.576;9.978;2023-08-01T06:52:09;4.40;;;4.00;;
7160;SDS011;3622;53.576;9.978;2023-08-01T06:54:35;7.03;;;4.50;;
7160;SDS011;3622;53.576;9.978;2023-08-01T06:57:01;7.70;;;4.57;;
7160;SDS011;3622;53.576;9.978;2023-08-01T06:59:26;5.30;;;4.80;;
7160;SDS011;3622;53.576;9.978;2023-08-01T07:01:53;4.10;;;3.80;;
7160;SDS011;3622;53.576;9.978;2023-08-01T07:04:19;5.17;;;3.83;;
7160;SDS011;3622;53.576;9.978;2023-08-01T07:06:45;5.20;;;4.03;;
7160;SDS011;3622;53.576;9.978;2023-08-01T07:09:11;4.27;;;3.40;;
7160;SDS011;3622;53.576;9.978;2023-08-01T07:11:37;6.00;;;3.60;;
7160;SDS011;3622;53.576;9.978;2023-08-01T07:14:03;3.60;;;3.10;;
7160;SDS011;3622;53.576;9.978;2023-08-01T07:16:28;3.50;;;3.20;;
7160;SDS011;3622;53.576;9.978;2023-08-01T07:18:55;4.53;;;2.93;;
7160;SDS011;3622;53.576;9.978;2023-08-01T07:21:21;3.50;;;3.03;;
7160;SDS011;3622;53.576;9.978;2023-08-01T07:23:47;3.60;;;3.30;;
7160;SDS011;3622;53.576;9.978;2023-08-01T07:26:13;6.13;;;2.80;;
7160;SDS011;3622;53.576;9.978;2023-08-01T07:28:39;3.97;;;3.10;;
7160;SDS011;3622;53.576;9.978;2023-08-01T07:31:06;3.97;;;2.60;;
7160;SDS011;3622;53.576;9.978;2023-08-01T07:33:32;5.50;;;2.70;;
7160;SDS011;3622;53.576;9.978;2023-08-01T07:35:59;7.57;;;3.50;;
7160;SDS011;3622;53.576;9.978;2023-08-01T07:38:25;3.57;;;3.07;;
7160;SDS011;3622;53.576;9.978;2023-08-01T07:40:56;3.20;;;2.90;;
7160;SDS011;3622;53.576;9.978;2023-08-01T07:43:22;3.43;;;2.83;;
7160;SDS011;3622;53.576;9.978;2023-08-01T07:45:48;3.10;;;2.53;;
7160;SDS011;3622;53.576;9.978;2023-08-01T07:48:15;4.23;;;2.90;;
7160;SDS011;3622;53.576;9.978;2023-08-01T07:50:41;4.40;;;2.30;;
7160;SDS011;3622;53.576;9.978;2023-08-01T07:53:07;4.00;;;3.40;;
7160;SDS011;3622;53.576;9.978;2023-08-01T07:55:33;5.30;;;3.10;;
7160;SDS011;3622;53.576;9.978;2023-08-01T07:58:00;6.73;;;2.90;;
7160;SDS011;3622;53.576;9.978;2023-08-01T08:00:26;4.87;;;3.00;;
7160;SDS011;3622;53.576;9.978;2023-08-01T08:02:52;6.80;;;3.90;;
7160;SDS011;3622;53.576;9.978;2023-08-01T08:05:18;5.30;;;3.57;;
7160;SDS011;3622;53.576;9.978;2023-08-01T08:07:45;7.47;;;4.77;;
7160;SDS011;3622;53.576;9.978;2023-08-01T08:10:10;5.97;;;3.10;;
7160;SDS011;3622;53.576;9.978;2023-08-01T08:12:36;9.33;;;4.20;;
7160;SDS011;3622;53.576;9.978;2023-08-01T08:15:02;7.13;;;3.30;;
7160;SDS011;3622;53.576;9.978;2023-08-01T08:17:28;5.67;;;3.07;;
7160;SDS011;3622;53.576;9.978;2023-08-01T08:19:54;5.57;;;3.50;;
7160;SDS011;3622;53.576;9.978;2023-08-01T08:22:20;3.07;;;2.50;;
7160;SDS011;3622;53.576;9.978;2023-08-01T08:24:46;5.50;;;3.70;;
7160;SDS011;3622;53.576;9.978;2023-08-01T08:27:13;6.10;;;4.20;;
7160;SDS011;3622;53.576;9.978;2023-08-01T08:29:39;5.10;;;4.10;;
7160;SDS011;3622;53.576;9.978;2023-08-01T08:32:05;5.23;;;3.23;;
7160;SDS011;3622;53.576;9.978;2023-08-01T08:34:31;5.33;;;4.13;;
7160;SDS011;3622;53.576;9.978;2023-08-01T08:36:57;7.70;;;3.83;;
7160;SDS011;3622;53.576;9.978;2023-08-01T08:39:23;6.63;;;4.23;;
7160;SDS011;3622;53.576;9.978;2023-08-01T08:41:49;6.40;;;3.97;;
7160;SDS011;3622;53.576;9.978;2023-08-01T08:44:16;6.77;;;4.77;;
7160;SDS011;3622;53.576;9.978;2023-08-01T08:46:44;6.07;;;3.30;;
7160;SDS011;3622;53.576;9.978;2023-08-01T08:49:11;6.60;;;4.17;;
7160;SDS011;3622;53.576;9.978;2023-08-01T08:51:37;7.13;;;3.67;;
7160;SDS011;3622;53.576;9.978;2023-08-01T08:54:04;18.03;;;4.20;;
7160;SDS011;3622;53.576;9.978;2023-08-01T08:56:31;6.47;;;4.40;;
7160;SDS011;3622;53.576;9.978;2023-08-01T08:58:57;8.87;;;4.60;;
7160;SDS011;3622;53.576;9.978;2023-08-01T09:01:24;6.63;;;4.20;;
7160;SDS011;3622;53.576;9.978;2023-08-01T09:03:51;8.03;;;4.87;;
7160;SDS011;3622;53.576;9.978;2023-08-01T09:06:21;5.37;;;3.93;;
7160;SDS011;3622;53.576;9.978;2023-08-01T09:08:50;7.80;;;4.83;;
7160;SDS011;3622;53.576;9.978;2023-08-01T09:11:17;3.93;;;3.53;;
7160;SDS011;3622;53.576;9.978;2023-08-01T09:13:43;3.77;;;3.47;;
7160;SDS011;3622;53.576;9.978;2023-08-01T09:16:09;3.93;;;3.50;;
7160;SDS011;3622;53.576;9.978;2023-08-01T09:18:46;5.37;;;5.00;;
7160;SDS011;3622;53.576;9.978;2023-08-01T09:21:12;3.90;;;3.60;;
7160;SDS011;3622;53.576;9.978;2023-08-01T09:23:38;4.00;;;3.60;;
7160;SDS011;3622;53.576;9.978;2023-08-01T09:26:16;5.53;;;3.77;;
7160;SDS011;3622;53.576;9.978;2023-08-01T09:28:43;5.33;;;4.80;;
7160;SDS011;3622;53.576;9.978;2023-08-01T09:31:09;3.77;;;3.07;;
7160;SDS011;3622;53.576;9.978;2023-08-01T09:33:39;3.30;;;3.20;;
7160;SDS011;3622;53.576;9.978;2023-08-01T09:36:06;4.80;;;3.27;;
7160;SDS011;3622;53.576;9.978;2023-08-01T09:38:35;2.90;;;2.70;;
7160;SDS011;3622;53.576;9.978;2023-08-01T09:41:02;2.80;;;2.60;;
7160;SDS011;3622;53.576;9.978;2023-08-01T09:43:35;3.23;;;2.70;;
7160;SDS011;3622;53.576;9.978;2023-08-01T09:46:01;3.20;;;2.53;;
7160;SDS011;3622;53.576;9.978;2023-08-01T09:48:28;5.13;;;3.03;;
7160;SDS011;3622;53.576;9.978;2023-08-01T09:53:56;6.30;;;2.80;;
7160;SDS011;3622;53.576;9.978;2023-08-01T09:56:26;3.30;;;3.00;;
7160;SDS011;3622;53.576;9.978;2023-08-01T09:58:53;6.40;;;2.47;;
7160;SDS011;3622;53.576;9.978;2023-08-01T10:01:20;7.30;;;3.10;;
7160;SDS011;3622;53.576;9.978;2023-08-01T10:03:46;4.07;;;2.63;;
7160;SDS011;3622;53.576;9.978;2023-08-01T10:06:14;6.83;;;3.20;;
7160;SDS011;3622;53.576;9.978;2023-08-01T10:08:43;8.03;;;3.40;;
7160;SDS011;3622;53.576;9.978;2023-08-01T10:11:09;5.47;;;2.77;;
7160;SDS011;3622;53.576;9.978;2023-08-01T10:13:36;2.73;;;2.40;;
7160;SDS011;3622;53.576;9.978;2023-08-01T10:16:02;5.17;;;2.67;;
7160;SDS011;3622;53.576;9.978;2023-08-01T10:18:29;4.93;;;2.77;;
7160;SDS011;3622;53.576;9.978;2023-08-01T10:20:55;4.67;;;3.87;;
7160;SDS011;3622;53.576;9.978;2023-08-01T10:23:22;3.30;;;2.57;;
7160;SDS011;3622;53.576;9.978;2023-08-01T10:25:48;4.97;;;3.10;;
7160;SDS011;3622;53.576;9.978;2023-08-01T10:28:14;2.57;;;2.40;;
7160;SDS011;3622;53.576;9.978;2023-08-01T10:30:40;11.53;;;2.70;;
7160;SDS011;3622;53.576;9.978;2023-08-01T10:33:06;2.57;;;2.13;;
7160;SDS011;3622;53.576;9.978;2023-08-01T10:35:38;1.93;;;1.80;;
7160;SDS011;3622;53.576;9.978;2023-08-01T10:38:07;2.57;;;2.37;;
7160;SDS011;3622;53.576;9.978;2023-08-01T10:40:37;2.80;;;1.93;;
7160;SDS011;3622;53.576;9.978;2023-08-01T10:43:04;2.10;;;1.97;;
7160;SDS011;3622;53.576;9.978;2023-08-01T10:45:30;2.40;;;2.10;;
7160;SDS011;3622;53.576;9.978;2023-08-01T10:48:11;3.27;;;1.90;;
7160;SDS011;3622;53.576;9.978;2023-08-01T10:50:37;2.63;;;2.43;;
7160;SDS011;3622;53.576;9.978;2023-08-01T10:53:04;3.53;;;3.23;;
7160;SDS011;3622;53.576;9.978;2023-08-01T10:55:40;3.57;;;2.57;;
7160;SDS011;3622;53.576;9.978;2023-08-01T10:58:07;2.60;;;2.40;;
7160;SDS011;3622;53.576;9.978;2023-08-01T11:00:33;4.73;;;4.27;;
7160;SDS011;3622;53.576;9.978;2023-08-01T11:02:59;7.30;;;6.17;;
7160;SDS011;3622;53.576;9.978;2023-08-01T11:05:25;1.83;;;1.33;;
7160;SDS011;3622;53.576;9.978;2023-08-01T11:07:56;2.40;;;1.60;;
7160;SDS011;3622;53.576;9.978;2023-08-01T11:10:26;2.70;;;1.00;;
7160;SDS011;3622;53.576;9.978;2023-08-01T11:12:52;2.70;;;1.00;;
7160;SDS011;3622;53.576;9.978;2023-08-01T11:15:18;2.03;;;1.30;;
7160;SDS011;3622;53.576;9.978;2023-08-01T11:17:51;5.10;;;1.70;;
7160;SDS011;3622;53.576;9.978;2023-08-01T11:20:18;1.00;;;0.90;;
7160;SDS011;3622;53.576;9.978;2023-08-01T11:22:49;1.93;;;1.73;;
7160;SDS011;3622;53.576;9.978;2023-08-01T11:25:15;1.77;;;1.00;;
7160;SDS011;3622;53.576;9.978;2023-08-01T11:27:41;2.27;;;1.00;;
7160;SDS011;3622;53.576;9.978;2023-08-01T11:30:07;1.70;;;1.20;;
7160;SDS011;3622;53.576;9.978;2023-08-01T11:32:34;3.10;;;1.10;;
7160;SDS011;3622;53.576;9.978;2023-08-01T11:35:00;1.53;;;1.03;;
7160;SDS011;3622;53.576;9.978;2023-08-01T11:37:27;1.83;;;1.73;;
7160;SDS011;3622;53.576;9.978;2023-08-01T11:39:53;5.43;;;4.93;;
7160;SDS011;3622;53.576;9.978;2023-08-01T11:42:20;4.60;;;1.47;;
7160;SDS011;3622;53.576;9.978;2023-08-01T11:44:46;2.27;;;1.30;;
7160;SDS011;3622;53.576;9.978;2023-08-01T11:47:15;1.60;;;1.50;;
7160;SDS011;3622;53.576;9.978;2023-08-01T11:49:45;2.27;;;2.17;;
7160;SDS011;3622;53.576;9.978;2023-08-01T11:52:21;2.00;;;1.73;;
7160;SDS011;3622;53.576;9.978;2023-08-01T11:54:47;4.20;;;2.10;;
7160;SDS011;3622;53.576;9.978;2023-08-01T11:57:13;5.63;;;2.70;;
7160;SDS011;3622;53.576;9.978;2023-08-01T11:59:45;0.93;;;0.83;;
7160;SDS011;3622;53.576;9.978;2023-08-01T12:02:19;3.53;;;3.27;;
7160;SDS011;3622;53.576;9.978;2023-08-01T12:04:45;1.20;;;1.10;;
7160;SDS011;3622;53.576;9.978;2023-08-01T12:07:12;1.90;;;1.50;;
7160;SDS011;3622;53.576;9.978;2023-08-01T12:09:39;1.07;;;0.97;;
7160;SDS011;3622;53.576;9.978;2023-08-01T12:12:05;3.57;;;1.30;;
7160;SDS011;3622;53.576;9.978;2023-08-01T12:14:31;1.70;;;1.00;;
7160;SDS011;3622;53.576;9.978;2023-08-01T12:16:57;1.63;;;1.10;;
7160;SDS011;3622;53.576;9.978;2023-08-01T12:19:23;3.90;;;3.30;;
7160;SDS011;3622;53.576;9.978;2023-08-01T12:21:49;1.30;;;0.97;;
7160;SDS011;3622;53.576;9.978;2023-08-01T12:24:15;1.87;;;1.17;;
7160;SDS011;3622;53.576;9.978;2023-08-01T12:26:41;3.60;;;1.50;;
7160;SDS011;3622;53.576;9.978;2023-08-01T12:29:07;1.23;;;0.80;;
7160;SDS011;3622;53.576;9.978;2023-08-01T12:31:33;1.67;;;1.57;;
7160;SDS011;3622;53.576;9.978;2023-08-01T12:33:59;1.43;;;1.33;;
7160;SDS011;3622;53.576;9.978;2023-08-01T12:36:25;2.67;;;2.30;;
7160;SDS011;3622;53.576;9.978;2023-08-01T12:38:51;0.87;;;0.77;;
7160;SDS011;3622;53.576;9.978;2023-08-01T12:41:17;4.37;;;4.00;;
7160;SDS011;3622;53.576;9.978;2023-08-01T12:43:43;1.33;;;1.20;;
7160;SDS011;3622;53.576;9.978;2023-08-01T12:46:09;0.93;;;0.90;;
7160;SDS011;3622;53.576;9.978;2023-08-01T12:48:35;1.73;;;1.03;;
7160;SDS011;3622;53.576;9.978;2023-08-01T12:51:02;1.37;;;1.27;;
7160;SDS011;3622;53.576;9.978;2023-08-01T12:53:27;1.07;;;0.87;;
7160;SDS011;3622;53.576;9.978;2023-08-01T12:55:53;1.70;;;0.93;;
7160;SDS011;3622;53.576;9.978;2023-08-01T12:58:19;2.50;;;1.10;;
7160;SDS011;3622;53.576;9.978;2023-08-01T13:00:45;0.97;;;0.80;;
7160;SDS011;3622;53.576;9.978;2023-08-01T13:03:12;1.13;;;0.90;;
7160;SDS011;3622;53.576;9.978;2023-08-01T13:05:39;2.50;;;0.90;;
7160;SDS011;3622;53.576;9.978;2023-08-01T13:08:05;1.43;;;0.90;;
7160;SDS011;3622;53.576;9.978;2023-08-01T13:10:31;1.00;;;0.90;;
7160;SDS011;3622;53.576;9.978;2023-08-01T13:12:58;0.90;;;0.77;;
7160;SDS011;3622;53.576;9.978;2023-08-01T13:15:24;1.80;;;1.10;;
7160;SDS011;3622;53.576;9.978;2023-08-01T13:17:50;1.73;;;0.97;;
7160;SDS011;3622;53.576;9.978;2023-08-01T13:20:16;1.13;;;1.03;;
7160;SDS011;3622;53.576;9.978;2023-08-01T13:22:42;1.43;;;1.33;;
7160;SDS011;3622;53.576;9.978;2023-08-01T13:25:08;1.30;;;0.87;;
7160;SDS011;3622;53.576;9.978;2023-08-01T13:27:34;1.33;;;1.23;;
7160;SDS011;3622;53.576;9.978;2023-08-01T13:30:01;4.80;;;1.20;;
7160;SDS011;3622;53.576;9.978;2023-08-01T13:32:27;3.20;;;3.00;;
7160;SDS011;3622;53.576;9.978;2023-08-01T13:34:53;1.50;;;1.40;;
7160;SDS011;3622;53.576;9.978;2023-08-01T13:37:19;1.30;;;1.03;;
7160;SDS011;3622;53.576;9.978;2023-08-01T13:39:45;3.67;;;2.30;;
7160;SDS011;3622;53.576;9.978;2023-08-01T13:42:11;1.37;;;1.27;;
7160;SDS011;3622;53.576;9.978;2023-08-01T13:44:37;2.40;;;1.20;;
7160;SDS011;3622;53.576;9.978;2023-08-01T13:47:03;2.60;;;1.47;;
7160;SDS011;3622;53.576;9.978;2023-08-01T13:49:30;1.43;;;1.33;;
7160;SDS011;3622;53.576;9.978;2023-08-01T13:51:56;2.10;;;1.70;;
7160;SDS011;3622;53.576;9.978;2023-08-01T13:54:22;1.50;;;1.37;;
7160;SDS011;3622;53.576;9.978;2023-08-01T13:56:48;2.10;;;1.33;;
7160;SDS011;3622;53.576;9.978;2023-08-01T13:59:14;1.97;;;1.83;;
7160;SDS011;3622;53.576;9.978;2023-08-01T14:01:40;1.40;;;1.30;;
7160;SDS011;3622;53.576;9.978;2023-08-01T14:04:06;1.67;;;1.33;;
7160;SDS011;3622;53.576;9.978;2023-08-01T14:06:32;7.73;;;6.00;;
7160;SDS011;3622;53.576;9.978;2023-08-01T14:08:58;1.53;;;1.20;;
7160;SDS011;3622;53.576;9.978;2023-08-01T14:11:24;1.57;;;0.80;;
7160;SDS011;3622;53.576;9.978;2023-08-01T14:13:50;1.20;;;1.10;;
7160;SDS011;3622;53.576;9.978;2023-08-01T14:16:16;2.97;;;1.17;;
7160;SDS011;3622;53.576;9.978;2023-08-01T14:18:42;1.70;;;1.60;;
7160;SDS011;3622;53.576;9.978;2023-08-01T14:21:09;1.30;;;1.20;;
7160;SDS011;3622;53.576;9.978;2023-08-01T14:23:35;1.20;;;1.10;;
7160;SDS011;3622;53.576;9.978;2023-08-01T14:26:03;2.47;;;2.37;;
7160;SDS011;3622;53.576;9.978;2023-08-01T14:28:29;3.83;;;3.53;;
7160;SDS011;3622;53.576;9.978;2023-08-01T14:30:55;0.80;;;0.60;;
7160;SDS011;3622;53.576;9.978;2023-08-01T14:33:21;3.63;;;2.50;;
7160;SDS011;3622;53.576;9.978;2023-08-01T14:35:47;2.30;;;1.53;;
7160;SDS011;3622;53.576;9.978;2023-08-01T14:38:14;1.70;;;1.60;;
7160;SDS011;3622;53.576;9.978;2023-08-01T14:40:39;1.30;;;1.10;;
7160;SDS011;3622;53.576;9.978;2023-08-01T14:43:05;0.90;;;0.60;;
7160;SDS011;3622;53.576;9.978;2023-08-01T14:45:32;1.60;;;1.03;;
7160;SDS011;3622;53.576;9.978;2023-08-01T14:48:03;1.30;;;1.20;;
7160;SDS011;3622;53.576;9.978;2023-08-01T14:50:29;5.07;;;2.80;;
7160;SDS011;3622;53.576;9.978;2023-08-01T14:52:55;2.20;;;2.10;;
7160;SDS011;3622;53.576;9.978;2023-08-01T14:55:21;2.00;;;1.27;;
7160;SDS011;3622;53.576;9.978;2023-08-01T14:57:48;1.00;;;0.90;;
7160;SDS011;3622;53.576;9.978;2023-08-01T15:00:14;1.23;;;1.13;;
7160;SDS011;3622;53.576;9.978;2023-08-01T15:02:40;1.30;;;1.20;;
7160;SDS011;3622;53.576;9.978;2023-08-01T15:05:06;1.20;;;1.00;;
7160;SDS011;3622;53.576;9.978;2023-08-01T15:07:33;2.53;;;1.27;;
7160;SDS011;3622;53.576;9.978;2023-08-01T15:09:59;3.70;;;1.30;;
7160;SDS011;3622;53.576;9.978;2023-08-01T15:12:25;1.70;;;0.83;;